Somerville, New Jersey
Current Conditions -  °F | °C
As of 10:29 PM on Monday 22 Dec 2014 (Local Time) from KSMQ Reporting Station
Haze Haze  
Wind Chill: 43°   Ceiling: 1100
Heat Index: 43°   Visibility: 5mi
Dew Point: 40°   Wind: 3mph
Humidity: 89%   Direction: 80°E
Pressure: 30.16"   Gusts: NA
Location:  40.57°N, 74.62°W
Report Text: KSMQ 230329Z AUTO 08003KT 5SM BR OVC011 06/04 A3016 RMK AO2 RAE14 P0000 T00610044
Loading
Personal Weather Stations






























Interactive Weather Map New forecast layout! Learn more

10-Day Weather Forecast

Advertisements
Track Severe Weather on mobile